KRBL

Red Bluff Municipal Airport

Red Bluff, California, USA
METAR KRBL 212154Z AUTO 10007KT 070V140 10SM CLR 36/08 A2991 RMK AO2 SLP123 T03610078
Observed Flight Rules
Jun-21 @ 21:54 UTC (12 minutes ago) Visual Flight Rules
Wind Visibility Clouds
100° at 7 knots 10 miles
  • Clear skies
Temperatures Readings
Current 36°C / 97°F
Dewpoint 8°C / 46°F
Humidity 18%
Altimeter 29.91" Hg
Pressure 1012.3 hPa
Elevation 104
METAR KRBL 212154Z AUTO 10007KT 070V140 10SM CLR 36/08 A2991 RMK AO2 SLP123 T03610078
Observed Flight Rules
Jun-21 @ 21:54 UTC
(12 minutes ago)
VFR
Wind Visibility
100° at 7 knots 10 miles
Clouds
  • Clear skies
Temperature Dewpoint
36°C / 97°F 8°C / 46°F
Humidity Altimeter Pressure
18% 29.91" Hg 1012.3 hPa